Terminal Aerodrome Forecast
Issued by NWS

Home | Current Version | Previous Version | Text Only | Print | Product List | Glossary On
Versions: 1 2 3 4 5 6 7 8 9 10 11 12 13 14 15 16 17 18 19 20 21 22 23 24 25 26 27 28 29 30 31 32 33 34 35 36 37 38 39 40 41 42 43
000
FTAK31 PANC 230539
TAFAAQ
TAF
PAAQ 230539Z 2306/2406 VRB05KT P6SM BKN025 OVC060
     FM230900 14005KT P6SM VCFG SCT007 OVC050
     FM231100 14005KT 6SM BR BKN007 OVC040
     FM231800 VRB05KT P6SM SCT007 OVC050=

USA.gov is the U.S. government's official web portal to all federal, state and local government web resources and services.